createdAt,value
2019-04-11T00:01:52.989Z,5.33
2019-04-11T00:04:21.969Z,5.97
2019-04-11T00:06:51.898Z,5.53
2019-04-11T00:09:20.809Z,6.77
2019-04-11T00:11:50.359Z,5.77
2019-04-11T00:14:20.022Z,5.63
2019-04-11T00:16:49.871Z,5.70
2019-04-11T00:19:19.077Z,6.00
2019-04-11T00:21:48.804Z,5.60
2019-04-11T00:24:18.665Z,6.13
2019-04-11T00:26:48.595Z,5.93
2019-04-11T00:29:18.395Z,5.63
2019-04-11T00:31:48.023Z,5.60
2019-04-11T00:34:16.664Z,5.90
2019-04-11T00:36:46.145Z,5.80
2019-04-11T00:39:15.377Z,5.50
2019-04-11T00:41:43.976Z,6.07
2019-04-11T00:44:12.648Z,5.40
2019-04-11T00:46:41.220Z,5.63
2019-04-11T00:49:10.290Z,6.40
2019-04-11T00:51:40.143Z,6.40
2019-04-11T00:54:08.837Z,5.87
2019-04-11T00:56:37.454Z,5.77
2019-04-11T00:59:06.044Z,5.87
2019-04-11T01:01:35.599Z,6.00
2019-04-11T01:04:04.476Z,6.00
2019-04-11T01:06:34.214Z,6.30
2019-04-11T01:09:22.300Z,5.93
2019-04-11T01:12:04.565Z,5.97
2019-04-11T01:14:34.186Z,5.57
2019-04-11T01:17:03.909Z,5.53
2019-04-11T01:19:32.997Z,5.67
2019-04-11T01:22:01.816Z,6.07
2019-04-11T01:24:31.436Z,5.63
2019-04-11T01:27:01.364Z,6.20
2019-04-11T01:29:30.083Z,5.67
2019-04-11T01:32:02.281Z,5.13
2019-04-11T01:34:30.951Z,5.40
2019-04-11T01:36:59.649Z,5.10
2019-04-11T01:39:49.545Z,5.50
2019-04-11T01:42:19.396Z,5.47
2019-04-11T01:44:49.243Z,5.50
2019-04-11T01:47:37.377Z,5.57
2019-04-11T01:50:06.207Z,5.77
2019-04-11T01:52:34.776Z,5.63
2019-04-11T01:55:03.954Z,6.07
2019-04-11T01:57:32.621Z,6.03
2019-04-11T02:00:01.980Z,5.73
2019-04-11T02:02:50.792Z,5.10
2019-04-11T02:05:25.246Z,5.47
2019-04-11T02:07:53.879Z,6.60
2019-04-11T02:10:22.473Z,5.40
2019-04-11T02:12:51.150Z,5.80
2019-04-11T02:15:20.272Z,5.43
2019-04-11T02:17:48.877Z,5.57
2019-04-11T02:20:17.622Z,5.47
2019-04-11T02:23:08.248Z,5.70
2019-04-11T02:25:49.076Z,5.70
2019-04-11T02:28:18.945Z,5.33
2019-04-11T02:30:51.246Z,5.23
2019-04-11T02:33:21.823Z,5.80
2019-04-11T02:35:51.872Z,5.53
2019-04-11T02:38:21.387Z,5.00
2019-04-11T02:40:52.533Z,6.33
2019-04-11T02:43:22.846Z,5.20
2019-04-11T02:46:04.504Z,5.97
2019-04-11T02:48:22.107Z,5.80
2019-04-11T02:50:50.995Z,5.40
2019-04-11T02:53:21.287Z,4.93
2019-04-11T02:55:51.853Z,5.50
2019-04-11T02:58:20.607Z,5.03
2019-04-11T03:00:50.277Z,5.37
2019-04-11T03:03:20.898Z,5.30
2019-04-11T03:05:50.842Z,5.67
2019-04-11T03:08:21.717Z,5.10
2019-04-11T03:10:51.347Z,5.30
2019-04-11T03:13:21.084Z,6.80
2019-04-11T03:16:07.313Z,5.53
2019-04-11T03:18:42.448Z,5.67
2019-04-11T03:20:56.645Z,6.17
2019-04-11T03:23:22.615Z,6.30
2019-04-11T03:25:52.451Z,5.50
2019-04-11T03:28:25.662Z,5.90
2019-04-11T03:31:13.764Z,5.63
2019-04-11T03:34:15.849Z,6.20
2019-04-11T03:36:40.827Z,6.33
2019-04-11T03:38:44.590Z,5.90
2019-04-11T03:41:14.230Z,5.73
2019-04-11T03:43:34.700Z,5.77
2019-04-11T03:46:16.378Z,6.37
2019-04-11T03:48:38.476Z,6.03
2019-04-11T03:50:55.508Z,6.27
2019-04-11T03:53:27.762Z,6.03
2019-04-11T03:55:56.065Z,6.33
2019-04-11T03:58:25.770Z,5.73
2019-04-11T04:00:58.806Z,6.13
2019-04-11T04:03:26.636Z,5.63
2019-04-11T04:05:57.238Z,7.13
2019-04-11T04:08:29.763Z,6.40
2019-04-11T04:11:34.674Z,6.83
2019-04-11T04:14:26.402Z,6.63
2019-04-11T04:17:25.426Z,6.40
2019-04-11T04:20:12.922Z,6.80
2019-04-11T04:22:49.634Z,6.80
2019-04-11T04:25:18.834Z,6.23
2019-04-11T04:27:49.126Z,7.47
2019-04-11T04:30:19.854Z,7.00
2019-04-11T04:32:49.326Z,7.57
2019-04-11T04:35:21.290Z,7.57
2019-04-11T04:37:49.731Z,6.83
2019-04-11T04:40:35.976Z,7.80
2019-04-11T04:42:53.283Z,8.60
2019-04-11T04:45:21.358Z,7.37
2019-04-11T04:47:56.924Z,7.40
2019-04-11T04:50:20.182Z,8.17
2019-04-11T04:52:49.139Z,9.27
2019-04-11T04:55:19.486Z,8.87
2019-04-11T04:57:48.760Z,8.63
2019-04-11T05:00:18.821Z,8.67
2019-04-11T05:02:47.994Z,8.13
2019-04-11T05:05:17.806Z,8.83
2019-04-11T05:07:47.437Z,8.47
2019-04-11T05:10:16.317Z,8.20
2019-04-11T05:12:46.108Z,8.70
2019-04-11T05:15:16.452Z,8.93
2019-04-11T05:17:46.150Z,8.40
2019-04-11T05:20:16.184Z,8.10
2019-04-11T05:22:45.011Z,8.57
2019-04-11T05:25:14.691Z,8.90
2019-04-11T05:27:43.351Z,8.37
2019-04-11T05:30:11.962Z,9.30
2019-04-11T05:32:41.659Z,8.87
2019-04-11T05:35:11.078Z,9.47
2019-04-11T05:37:39.779Z,10.13
2019-04-11T05:40:09.279Z,9.43
2019-04-11T05:42:38.038Z,9.10
2019-04-11T05:45:11.611Z,10.53
2019-04-11T05:47:37.318Z,9.10
2019-04-11T05:50:15.931Z,9.90
2019-04-11T05:52:45.115Z,10.47
2019-04-11T05:55:14.068Z,10.97
2019-04-11T05:57:44.909Z,11.47
2019-04-11T06:00:21.511Z,10.50
2019-04-11T06:02:57.552Z,10.90
2019-04-11T06:05:45.086Z,11.40
2019-04-11T06:08:21.130Z,10.23
2019-04-11T06:11:05.912Z,10.63
2019-04-11T06:13:39.074Z,11.47
2019-04-11T06:16:08.261Z,12.10
2019-04-11T06:19:00.701Z,11.23
2019-04-11T06:21:33.728Z,10.17
2019-04-11T06:24:20.351Z,10.90
2019-04-11T06:27:08.826Z,10.97
2019-04-11T06:29:55.906Z,11.70
2019-04-11T06:32:43.729Z,11.80
2019-04-11T06:35:32.353Z,10.13
2019-04-11T06:38:19.173Z,11.37
2019-04-11T06:40:55.146Z,11.57
2019-04-11T06:43:38.480Z,11.37
2019-04-11T06:46:48.575Z,11.83
2019-04-11T06:49:24.675Z,11.13
2019-04-11T06:51:57.199Z,10.80
2019-04-11T06:54:45.451Z,12.17
2019-04-11T06:57:18.087Z,10.67
2019-04-11T06:59:48.408Z,11.17
2019-04-11T07:02:21.104Z,11.43
2019-04-11T07:04:56.152Z,11.40
2019-04-11T07:07:28.717Z,10.97
2019-04-11T07:10:02.077Z,11.87
2019-04-11T07:12:40.776Z,11.87
2019-04-11T07:15:15.887Z,10.93
2019-04-11T07:18:04.795Z,11.07
2019-04-11T07:20:58.669Z,11.57
2019-04-11T07:23:47.624Z,11.10
2019-04-11T07:26:35.271Z,10.23
2019-04-11T07:29:23.929Z,10.80
2019-04-11T07:32:06.530Z,9.83
2019-04-11T07:35:13.007Z,9.87
2019-04-11T07:37:51.096Z,9.67
2019-04-11T07:40:58.754Z,9.07
2019-04-11T07:43:36.798Z,9.33
2019-04-11T07:46:25.542Z,8.33
2019-04-11T07:49:03.623Z,8.70
2019-04-11T07:51:34.507Z,8.50
2019-04-11T07:54:07.896Z,9.03
2019-04-11T07:56:58.970Z,8.93
2019-04-11T07:59:37.644Z,8.40
2019-04-11T08:02:24.498Z,7.97
2019-04-11T08:05:11.552Z,8.43
2019-04-11T08:07:58.052Z,8.50
2019-04-11T08:10:33.071Z,8.20
2019-04-11T08:13:05.915Z,8.10
2019-04-11T08:15:53.655Z,8.67
2019-04-11T08:18:48.796Z,7.23
2019-04-11T08:21:42.570Z,7.80
2019-04-11T08:24:16.425Z,6.73
2019-04-11T08:27:03.374Z,6.70
2019-04-11T08:29:31.964Z,6.80
2019-04-11T08:32:35.937Z,6.97
2019-04-11T08:35:13.935Z,5.97
2019-04-11T08:37:56.002Z,7.00
2019-04-11T08:40:26.005Z,6.97
2019-04-11T08:43:13.144Z,5.83
2019-04-11T08:45:46.614Z,7.20
2019-04-11T08:48:16.999Z,6.90
2019-04-11T08:50:48.942Z,6.70
2019-04-11T08:53:37.211Z,6.77
2019-04-11T08:56:07.033Z,7.30
2019-04-11T08:58:47.070Z,6.53
2019-04-11T09:01:20.148Z,5.23
2019-04-11T09:04:11.906Z,5.80
2019-04-11T09:06:41.027Z,5.40
2019-04-11T09:09:27.581Z,5.53
2019-04-11T09:12:00.330Z,5.50
2019-04-11T09:15:06.641Z,5.07
2019-04-11T09:17:56.689Z,5.50
2019-04-11T09:20:53.919Z,5.60
2019-04-11T09:23:23.996Z,6.07
2019-04-11T09:26:18.040Z,5.53
2019-04-11T09:28:49.502Z,5.23
2019-04-11T09:31:41.699Z,5.50
2019-04-11T09:34:30.239Z,5.80
2019-04-11T09:37:18.439Z,5.87
2019-04-11T09:40:12.531Z,6.50
2019-04-11T09:43:18.244Z,6.13
2019-04-11T09:45:59.701Z,6.07
2019-04-11T09:49:03.060Z,5.07
2019-04-11T09:51:40.528Z,5.77
2019-04-11T09:54:32.266Z,5.37
2019-04-11T09:57:18.567Z,5.97
2019-04-11T10:00:10.198Z,5.10
2019-04-11T10:02:53.897Z,5.80
2019-04-11T10:05:42.594Z,6.37
2019-04-11T10:08:30.963Z,6.07
2019-04-11T10:11:17.752Z,5.77
2019-04-11T10:13:59.555Z,5.73
2019-04-11T10:16:53.816Z,6.27
2019-04-11T10:19:34.345Z,5.50
2019-04-11T10:22:11.640Z,6.43
2019-04-11T10:24:58.708Z,5.90
2019-04-11T10:27:38.636Z,5.97
2019-04-11T10:30:33.537Z,6.50
2019-04-11T10:33:06.673Z,6.47
2019-04-11T10:35:57.317Z,6.37
2019-04-11T10:38:26.612Z,6.53
2019-04-11T10:41:14.696Z,5.97
2019-04-11T10:43:45.104Z,6.43
2019-04-11T10:46:31.831Z,6.60
2019-04-11T10:49:07.558Z,6.53
2019-04-11T10:51:56.061Z,6.53
2019-04-11T10:54:26.436Z,5.87
2019-04-11T10:57:20.923Z,5.60
2019-04-11T10:59:51.084Z,6.60
2019-04-11T11:02:37.743Z,6.53
2019-04-11T11:05:07.373Z,6.47
2019-04-11T11:07:37.054Z,6.23
2019-04-11T11:10:15.417Z,5.90
2019-04-11T11:13:02.045Z,6.87
2019-04-11T11:15:44.043Z,6.43
2019-04-11T11:19:14.946Z,6.27
2019-04-11T11:21:19.786Z,6.30
2019-04-11T11:24:08.666Z,6.63
2019-04-11T11:26:39.085Z,6.50
2019-04-11T11:29:40.151Z,6.00
2019-04-11T11:32:27.372Z,6.47
2019-04-11T11:35:28.348Z,6.10
2019-04-11T11:38:17.787Z,6.33
2019-04-11T11:41:04.386Z,6.40
2019-04-11T11:43:34.968Z,6.47
2019-04-11T11:46:25.955Z,6.53
2019-04-11T11:49:02.802Z,6.37
2019-04-11T11:51:53.985Z,6.10
2019-04-11T11:54:35.360Z,6.20
2019-04-11T11:57:08.716Z,6.67
2019-04-11T12:00:02.968Z,6.17
2019-04-11T12:02:36.879Z,6.97
2019-04-11T12:05:14.661Z,7.27
2019-04-11T12:07:51.511Z,6.70
2019-04-11T12:10:55.424Z,6.33
2019-04-11T12:13:47.357Z,6.73
2019-04-11T12:16:21.374Z,6.47
2019-04-11T12:19:00.585Z,6.93
2019-04-11T12:21:31.830Z,7.30
2019-04-11T12:24:32.352Z,6.93
2019-04-11T12:27:20.581Z,6.33
2019-04-11T12:30:15.656Z,6.00
2019-04-11T12:32:49.713Z,6.80
2019-04-11T12:35:44.296Z,6.37
2019-04-11T12:38:24.505Z,6.40
2019-04-11T12:41:15.740Z,6.17
2019-04-11T12:44:03.427Z,6.67
2019-04-11T12:46:49.848Z,6.73
2019-04-11T12:49:37.586Z,6.37
2019-04-11T12:52:24.253Z,6.80
2019-04-11T12:54:52.893Z,5.73
2019-04-11T12:57:39.589Z,6.50
2019-04-11T13:00:36.742Z,6.50
2019-04-11T13:03:31.981Z,6.87
2019-04-11T13:06:05.205Z,8.53
2019-04-11T13:08:51.822Z,6.83
2019-04-11T13:11:21.326Z,6.00
2019-04-11T13:14:07.830Z,6.73
2019-04-11T13:16:36.732Z,6.80
2019-04-11T13:19:37.110Z,6.13
2019-04-11T13:22:10.813Z,6.67
2019-04-11T13:24:47.387Z,6.73
2019-04-11T13:27:47.547Z,7.13
2019-04-11T13:30:53.431Z,6.53
2019-04-11T13:33:26.879Z,6.03
2019-04-11T13:36:23.557Z,5.80
2019-04-11T13:38:52.586Z,6.37
2019-04-11T13:41:55.902Z,6.50
2019-04-11T13:44:32.988Z,6.23
2019-04-11T13:47:19.527Z,6.33
2019-04-11T13:49:50.285Z,6.10
2019-04-11T13:52:37.964Z,6.53
2019-04-11T13:55:27.471Z,5.47
2019-04-11T13:58:15.145Z,5.43
2019-04-11T14:01:09.249Z,5.93
2019-04-11T14:04:00.028Z,6.40
2019-04-11T14:06:29.913Z,5.97
2019-04-11T14:09:20.406Z,7.40
2019-04-11T14:11:50.499Z,5.87
2019-04-11T14:14:39.488Z,6.00
2019-04-11T14:17:36.445Z,5.93
2019-04-11T14:20:30.227Z,6.70
2019-04-11T14:23:23.902Z,6.07
2019-04-11T14:26:13.960Z,6.40
2019-04-11T14:29:04.663Z,6.10
2019-04-11T14:31:58.541Z,5.90
2019-04-11T14:34:45.360Z,6.77
2019-04-11T14:37:22.051Z,6.57
2019-04-11T14:39:52.884Z,6.43
2019-04-11T14:42:52.909Z,6.60
2019-04-11T14:45:49.103Z,6.60
2019-04-11T14:48:42.687Z,6.77
2019-04-11T14:51:23.915Z,6.57
2019-04-11T14:53:57.497Z,6.37
2019-04-11T14:56:27.200Z,6.83
2019-04-11T14:59:13.663Z,6.37
2019-04-11T15:02:25.331Z,6.80
2019-04-11T15:05:19.326Z,7.57
2019-04-11T15:07:48.109Z,7.27
2019-04-11T15:10:48.196Z,6.73
2019-04-11T15:13:18.716Z,6.87
2019-04-11T15:16:05.065Z,7.57
2019-04-11T15:18:36.460Z,6.83
2019-04-11T15:21:24.132Z,7.03
2019-04-11T15:23:53.500Z,7.83
2019-04-11T15:26:44.175Z,7.20
2019-04-11T15:29:26.500Z,7.07
2019-04-11T15:32:28.972Z,6.63
2019-04-11T15:35:01.197Z,7.50
2019-04-11T15:37:41.007Z,7.10
2019-04-11T15:40:14.689Z,6.90
2019-04-11T15:43:02.373Z,7.60
2019-04-11T15:45:34.372Z,7.30
2019-04-11T15:48:23.603Z,7.70
2019-04-11T15:51:11.751Z,7.37
2019-04-11T15:53:53.551Z,6.50
2019-04-11T15:56:41.738Z,6.93
2019-04-11T15:59:23.693Z,7.10
2019-04-11T16:02:30.699Z,6.23
2019-04-11T16:05:31.713Z,6.87
2019-04-11T16:08:31.989Z,6.53
2019-04-11T16:11:16.072Z,6.00
2019-04-11T16:13:51.693Z,7.37
2019-04-11T16:16:24.699Z,6.53
2019-04-11T16:19:18.576Z,6.43
2019-04-11T16:22:00.655Z,6.90
2019-04-11T16:24:32.195Z,6.90
2019-04-11T16:27:10.085Z,6.60
2019-04-11T16:29:46.063Z,6.53
2019-04-11T16:32:14.711Z,6.20
2019-04-11T16:34:54.486Z,6.87
2019-04-11T16:37:21.359Z,6.43
2019-04-11T16:40:07.680Z,7.03
2019-04-11T16:42:39.773Z,6.80
2019-04-11T16:45:40.136Z,6.23
2019-04-11T16:48:08.737Z,6.23
2019-04-11T16:50:37.315Z,6.27
2019-04-11T16:53:05.919Z,6.23
2019-04-11T16:55:36.666Z,6.37
2019-04-11T16:58:04.813Z,6.20
2019-04-11T17:00:33.421Z,6.67
2019-04-11T17:03:02.124Z,6.97
2019-04-11T17:05:30.718Z,6.37
2019-04-11T17:08:06.267Z,6.37
2019-04-11T17:10:56.703Z,7.00
2019-04-11T17:13:23.767Z,6.63
2019-04-11T17:15:53.461Z,6.57
2019-04-11T17:18:22.020Z,6.77
2019-04-11T17:20:50.653Z,6.43
2019-04-11T17:23:19.570Z,7.70
2019-04-11T17:26:07.470Z,6.87
2019-04-11T17:28:36.321Z,7.10
2019-04-11T17:31:05.274Z,7.07
2019-04-11T17:36:33.570Z,6.63
2019-04-11T17:39:07.546Z,7.57
2019-04-11T17:41:36.295Z,7.30
2019-04-11T17:44:04.876Z,7.57
2019-04-11T17:46:33.452Z,7.17
2019-04-11T17:49:02.036Z,7.07
2019-04-11T17:51:34.409Z,6.97
2019-04-11T17:54:01.510Z,7.50
2019-04-11T17:56:30.281Z,7.97
2019-04-11T17:58:58.861Z,7.80
2019-04-11T18:01:30.558Z,8.70
2019-04-11T18:03:59.139Z,8.63
2019-04-11T18:06:27.721Z,8.57
2019-04-11T18:08:56.309Z,7.37
2019-04-11T18:11:26.203Z,8.07
2019-04-11T18:13:55.274Z,7.40
2019-04-11T18:16:23.838Z,8.30
2019-04-11T18:18:52.433Z,7.67
2019-04-11T18:21:21.390Z,8.33
2019-04-11T18:23:50.621Z,8.03
2019-04-11T18:26:21.492Z,8.40
2019-04-11T18:28:51.963Z,8.00
2019-04-11T18:31:20.343Z,7.73
2019-04-11T18:33:48.922Z,7.87
2019-04-11T18:36:17.503Z,7.00
2019-04-11T18:38:46.102Z,7.03
2019-04-11T18:41:14.683Z,7.33
2019-04-11T18:43:46.789Z,8.20
2019-04-11T18:46:13.553Z,6.70
2019-04-11T18:48:42.153Z,7.00
2019-04-11T18:51:10.756Z,7.60
2019-04-11T18:53:39.317Z,7.47
2019-04-11T18:56:07.908Z,7.50
2019-04-11T18:58:36.482Z,7.23
2019-04-11T19:01:08.799Z,6.77
2019-04-11T19:03:36.674Z,7.23
2019-04-11T19:06:05.383Z,7.20
2019-04-11T19:08:34.063Z,7.23
2019-04-11T19:11:02.737Z,7.63
2019-04-11T19:13:31.325Z,6.83
2019-04-11T19:15:59.921Z,7.40
2019-04-11T19:18:28.520Z,7.80
2019-04-11T19:20:57.173Z,7.20
2019-04-11T19:23:25.809Z,7.70
2019-04-11T19:25:54.416Z,7.83
2019-04-11T19:28:25.225Z,7.47
2019-04-11T19:30:56.764Z,7.80
2019-04-11T19:33:25.563Z,7.77
2019-04-11T19:35:54.168Z,7.83
2019-04-11T19:38:28.075Z,7.80
2019-04-11T19:40:56.681Z,8.70
2019-04-11T19:43:25.262Z,8.30
2019-04-11T19:45:53.862Z,8.00
2019-04-11T19:48:22.689Z,9.00
2019-04-11T19:50:52.748Z,8.30
2019-04-11T19:53:21.333Z,8.70
2019-04-11T19:56:15.115Z,8.73
2019-04-11T19:58:44.041Z,9.20
2019-04-11T20:01:12.634Z,8.73
2019-04-11T20:03:41.209Z,9.30
2019-04-11T20:06:09.778Z,8.53
2019-04-11T20:08:38.381Z,8.83
2019-04-11T20:11:09.081Z,9.17
2019-04-11T20:13:56.997Z,9.27
2019-04-11T20:16:25.604Z,8.27
2019-04-11T20:18:56.732Z,8.20
2019-04-11T20:21:24.554Z,8.80
2019-04-11T20:23:53.317Z,8.17
2019-04-11T20:26:21.898Z,8.60
2019-04-11T20:28:50.990Z,8.67
2019-04-11T20:31:20.263Z,9.37
2019-04-11T20:33:49.168Z,8.20
2019-04-11T20:36:17.749Z,7.93
2019-04-11T20:38:48.848Z,8.40
2019-04-11T20:41:17.793Z,8.20
2019-04-11T20:43:46.400Z,7.57
2019-04-11T20:46:15.364Z,8.23
2019-04-11T20:48:43.939Z,7.97
2019-04-11T20:51:12.540Z,8.03
2019-04-11T20:53:41.194Z,8.30
2019-04-11T20:56:10.692Z,8.33
2019-04-11T20:58:40.284Z,6.80
2019-04-11T21:01:09.139Z,7.37
2019-04-11T21:03:37.714Z,7.27
2019-04-11T21:06:06.277Z,7.60
2019-04-11T21:08:36.712Z,7.33
2019-04-11T21:11:05.619Z,7.50
2019-04-11T21:13:38.124Z,7.80
2019-04-11T21:16:04.921Z,7.83
2019-04-11T21:18:33.517Z,7.90
2019-04-11T21:21:02.219Z,7.60
2019-04-11T21:23:30.772Z,7.67
2019-04-11T21:25:59.735Z,8.47
2019-04-11T21:28:30.310Z,8.43
2019-04-11T21:31:00.132Z,7.90
2019-04-11T21:33:29.168Z,9.50
2019-04-11T21:35:57.777Z,7.97
2019-04-11T21:38:28.147Z,7.60
2019-04-11T21:40:56.714Z,8.97
2019-04-11T21:43:25.314Z,8.43
2019-04-11T21:46:06.997Z,8.90
2019-04-11T21:48:36.646Z,8.73
2019-04-11T21:51:05.233Z,8.50
2019-04-11T21:53:36.722Z,9.40
2019-04-11T21:56:04.109Z,8.47
2019-04-11T21:58:32.692Z,7.50
2019-04-11T22:01:07.671Z,7.60
2019-04-11T22:03:57.685Z,8.37
2019-04-11T22:06:28.014Z,8.27
2019-04-11T22:08:56.395Z,7.77
2019-04-11T22:11:25.100Z,8.17
2019-04-11T22:13:53.702Z,7.93
2019-04-11T22:16:22.292Z,7.87
2019-04-11T22:18:50.868Z,7.40
2019-04-11T22:21:19.465Z,7.43
2019-04-11T22:23:49.087Z,8.27
2019-04-11T22:26:18.004Z,8.00
2019-04-11T22:28:46.588Z,8.03
2019-04-11T22:31:15.172Z,7.80
2019-04-11T22:34:05.596Z,7.40
2019-04-11T22:36:34.179Z,7.90
2019-04-11T22:39:02.768Z,7.70
2019-04-11T22:41:31.372Z,7.33
2019-04-11T22:43:59.941Z,7.43
2019-04-11T22:46:28.511Z,8.93
2019-04-11T22:48:57.220Z,7.00
2019-04-11T22:51:25.808Z,7.43
2019-04-11T22:54:00.496Z,7.33
2019-04-11T22:56:24.685Z,7.47
2019-04-11T22:58:53.254Z,7.47
2019-04-11T23:01:21.844Z,7.47
2019-04-11T23:03:56.763Z,7.07
2019-04-11T23:06:25.357Z,7.77
2019-04-11T23:08:53.949Z,7.90
2019-04-11T23:11:22.534Z,8.23
2019-04-11T23:13:51.102Z,7.77
2019-04-11T23:16:19.699Z,7.50
2019-04-11T23:18:48.251Z,7.77
2019-04-11T23:21:16.835Z,8.20
2019-04-11T23:23:45.422Z,7.40
2019-04-11T23:26:14.009Z,7.90
2019-04-11T23:28:45.809Z,7.60
2019-04-11T23:31:12.869Z,8.03
2019-04-11T23:33:41.499Z,8.10
2019-04-11T23:36:10.072Z,8.23
2019-04-11T23:38:38.648Z,7.93
2019-04-11T23:41:07.219Z,8.47
2019-04-11T23:43:35.795Z,8.17
2019-04-11T23:46:04.386Z,8.47
2019-04-11T23:48:32.958Z,8.17
2019-04-11T23:51:25.474Z,9.10
2019-04-11T23:53:51.142Z,7.77
2019-04-11T23:56:19.719Z,8.20
2019-04-11T23:58:48.283Z,8.83
